sensor_id;sensor_type;location;lat;lon;timestamp;temperature;humidity
29453;DHT22;16424;50.956;5.320;2023-05-10T00:01:58;15.00;99.90
29453;DHT22;16424;50.956;5.320;2023-05-10T00:04:24;15.00;99.90
29453;DHT22;16424;50.956;5.320;2023-05-10T00:06:53;15.00;99.90
29453;DHT22;16424;50.956;5.320;2023-05-10T00:09:18;15.00;99.90
29453;DHT22;16424;50.956;5.320;2023-05-10T00:11:44;15.00;99.90
29453;DHT22;16424;50.956;5.320;2023-05-10T00:14:10;14.90;99.90
29453;DHT22;16424;50.956;5.320;2023-05-10T00:16:35;15.00;99.90
29453;DHT22;16424;50.956;5.320;2023-05-10T00:19:01;15.10;99.90
29453;DHT22;16424;50.956;5.320;2023-05-10T00:21:27;15.00;99.90
29453;DHT22;16424;50.956;5.320;2023-05-10T00:23:54;15.00;99.90
29453;DHT22;16424;50.956;5.320;2023-05-10T00:26:20;14.70;99.90
29453;DHT22;16424;50.956;5.320;2023-05-10T00:28:45;14.80;99.90
29453;DHT22;16424;50.956;5.320;2023-05-10T00:31:11;14.90;99.90
29453;DHT22;16424;50.956;5.320;2023-05-10T00:33:36;15.00;99.90
29453;DHT22;16424;50.956;5.320;2023-05-10T00:36:02;15.10;99.90
29453;DHT22;16424;50.956;5.320;2023-05-10T00:38:28;15.00;99.90
29453;DHT22;16424;50.956;5.320;2023-05-10T00:40:54;15.00;99.90
29453;DHT22;16424;50.956;5.320;2023-05-10T00:43:20;14.90;99.90
29453;DHT22;16424;50.956;5.320;2023-05-10T00:45:45;14.80;99.90
29453;DHT22;16424;50.956;5.320;2023-05-10T00:48:11;14.90;99.90
29453;DHT22;16424;50.956;5.320;2023-05-10T00:50:37;14.80;99.90
29453;DHT22;16424;50.956;5.320;2023-05-10T00:53:04;14.80;99.90
29453;DHT22;16424;50.956;5.320;2023-05-10T00:55:30;14.80;99.90
29453;DHT22;16424;50.956;5.320;2023-05-10T00:57:56;14.80;99.90
29453;DHT22;16424;50.956;5.320;2023-05-10T01:00:22;14.50;99.90
29453;DHT22;16424;50.956;5.320;2023-05-10T01:02:48;14.40;99.90
29453;DHT22;16424;50.956;5.320;2023-05-10T01:05:15;14.50;99.90
29453;DHT22;16424;50.956;5.320;2023-05-10T01:07:40;14.30;99.90
29453;DHT22;16424;50.956;5.320;2023-05-10T01:10:07;14.30;99.90
29453;DHT22;16424;50.956;5.320;2023-05-10T01:12:37;14.40;99.90
29453;DHT22;16424;50.956;5.320;2023-05-10T01:15:05;14.20;99.90
29453;DHT22;16424;50.956;5.320;2023-05-10T01:17:31;14.20;99.90
29453;DHT22;16424;50.956;5.320;2023-05-10T01:19:57;14.10;99.90
29453;DHT22;16424;50.956;5.320;2023-05-10T01:25:31;13.90;99.90
29453;DHT22;16424;50.956;5.320;2023-05-10T01:31:33;13.80;99.90
29453;DHT22;16424;50.956;5.320;2023-05-10T01:34:08;14.10;99.90
29453;DHT22;16424;50.956;5.320;2023-05-10T01:36:56;14.20;99.90
29453;DHT22;16424;50.956;5.320;2023-05-10T01:40:10;14.30;99.90
29453;DHT22;16424;50.956;5.320;2023-05-10T01:42:12;14.40;99.90
29453;DHT22;16424;50.956;5.320;2023-05-10T01:44:49;14.50;99.90
29453;DHT22;16424;50.956;5.320;2023-05-10T01:47:34;14.50;99.90
29453;DHT22;16424;50.956;5.320;2023-05-10T01:50:10;14.40;99.90
29453;DHT22;16424;50.956;5.320;2023-05-10T01:52:47;14.50;99.90
29453;DHT22;16424;50.956;5.320;2023-05-10T01:55:16;14.50;99.90
29453;DHT22;16424;50.956;5.320;2023-05-10T01:57:44;14.30;99.90
29453;DHT22;16424;50.956;5.320;2023-05-10T02:00:12;14.30;99.90
29453;DHT22;16424;50.956;5.320;2023-05-10T02:02:40;14.20;99.90
29453;DHT22;16424;50.956;5.320;2023-05-10T02:05:08;14.30;99.90
29453;DHT22;16424;50.956;5.320;2023-05-10T02:07:36;14.40;99.90
29453;DHT22;16424;50.956;5.320;2023-05-10T02:10:06;14.20;99.90
29453;DHT22;16424;50.956;5.320;2023-05-10T02:12:36;14.30;99.90
29453;DHT22;16424;50.956;5.320;2023-05-10T02:15:04;14.10;99.90
29453;DHT22;16424;50.956;5.320;2023-05-10T02:17:32;14.10;99.90
29453;DHT22;16424;50.956;5.320;2023-05-10T02:19:59;14.10;99.90
29453;DHT22;16424;50.956;5.320;2023-05-10T02:22:27;14.30;99.90
29453;DHT22;16424;50.956;5.320;2023-05-10T02:24:55;14.40;99.90
29453;DHT22;16424;50.956;5.320;2023-05-10T02:27:23;14.50;99.90
29453;DHT22;16424;50.956;5.320;2023-05-10T02:29:50;14.50;99.90
29453;DHT22;16424;50.956;5.320;2023-05-10T02:32:17;14.60;99.90
29453;DHT22;16424;50.956;5.320;2023-05-10T02:34:44;14.60;99.90
29453;DHT22;16424;50.956;5.320;2023-05-10T02:37:15;14.50;99.90
29453;DHT22;16424;50.956;5.320;2023-05-10T02:39:42;14.30;99.90
29453;DHT22;16424;50.956;5.320;2023-05-10T02:42:16;14.30;99.90
29453;DHT22;16424;50.956;5.320;2023-05-10T02:44:43;14.40;99.90
29453;DHT22;16424;50.956;5.320;2023-05-10T02:47:10;14.20;99.90
29453;DHT22;16424;50.956;5.320;2023-05-10T02:49:36;14.30;99.90
29453;DHT22;16424;50.956;5.320;2023-05-10T02:52:05;14.50;99.90
29453;DHT22;16424;50.956;5.320;2023-05-10T02:54:39;14.60;99.90
29453;DHT22;16424;50.956;5.320;2023-05-10T02:57:07;14.60;99.90
29453;DHT22;16424;50.956;5.320;2023-05-10T02:59:36;14.60;99.90
29453;DHT22;16424;50.956;5.320;2023-05-10T03:02:02;14.30;99.90
29453;DHT22;16424;50.956;5.320;2023-05-10T03:04:29;14.40;99.90
29453;DHT22;16424;50.956;5.320;2023-05-10T03:06:55;14.60;99.90
29453;DHT22;16424;50.956;5.320;2023-05-10T03:09:20;14.70;99.90
29453;DHT22;16424;50.956;5.320;2023-05-10T03:12:47;14.70;99.90
29453;DHT22;16424;50.956;5.320;2023-05-10T03:14:53;14.60;99.90
29453;DHT22;16424;50.956;5.320;2023-05-10T03:17:35;14.50;99.90
29453;DHT22;16424;50.956;5.320;2023-05-10T03:20:26;14.50;99.90
29453;DHT22;16424;50.956;5.320;2023-05-10T03:23:04;14.70;99.90
29453;DHT22;16424;50.956;5.320;2023-05-10T03:25:33;14.70;99.90
29453;DHT22;16424;50.956;5.320;2023-05-10T03:28:01;14.80;99.90
29453;DHT22;16424;50.956;5.320;2023-05-10T03:30:27;14.70;99.90
29453;DHT22;16424;50.956;5.320;2023-05-10T03:32:53;14.50;99.90
29453;DHT22;16424;50.956;5.320;2023-05-10T03:35:19;14.60;99.90
29453;DHT22;16424;50.956;5.320;2023-05-10T03:37:45;14.70;99.90
29453;DHT22;16424;50.956;5.320;2023-05-10T03:40:11;14.70;99.90
29453;DHT22;16424;50.956;5.320;2023-05-10T03:42:36;14.60;99.90
29453;DHT22;16424;50.956;5.320;2023-05-10T03:45:02;14.50;99.90
29453;DHT22;16424;50.956;5.320;2023-05-10T03:47:28;14.50;99.90
29453;DHT22;16424;50.956;5.320;2023-05-10T03:49:54;14.50;99.90
29453;DHT22;16424;50.956;5.320;2023-05-10T03:52:21;14.60;99.90
29453;DHT22;16424;50.956;5.320;2023-05-10T03:54:46;14.60;99.90
29453;DHT22;16424;50.956;5.320;2023-05-10T03:57:12;14.60;99.90
29453;DHT22;16424;50.956;5.320;2023-05-10T03:59:37;14.60;99.90
29453;DHT22;16424;50.956;5.320;2023-05-10T04:02:03;14.60;99.90
29453;DHT22;16424;50.956;5.320;2023-05-10T04:04:29;14.60;99.90
29453;DHT22;16424;50.956;5.320;2023-05-10T04:06:54;14.60;99.90
29453;DHT22;16424;50.956;5.320;2023-05-10T04:09:20;14.50;99.90
29453;DHT22;16424;50.956;5.320;2023-05-10T04:11:46;14.50;99.90
29453;DHT22;16424;50.956;5.320;2023-05-10T04:14:11;14.60;99.90
29453;DHT22;16424;50.956;5.320;2023-05-10T04:16:37;14.50;99.90
29453;DHT22;16424;50.956;5.320;2023-05-10T04:19:03;14.60;99.90
29453;DHT22;16424;50.956;5.320;2023-05-10T04:21:29;14.50;99.90
29453;DHT22;16424;50.956;5.320;2023-05-10T04:23:54;14.60;99.90
29453;DHT22;16424;50.956;5.320;2023-05-10T04:26:20;14.60;99.90
29453;DHT22;16424;50.956;5.320;2023-05-10T04:28:46;14.70;99.90
29453;DHT22;16424;50.956;5.320;2023-05-10T04:31:12;14.60;99.90
29453;DHT22;16424;50.956;5.320;2023-05-10T04:33:37;14.50;99.90
29453;DHT22;16424;50.956;5.320;2023-05-10T04:36:03;14.20;99.90
29453;DHT22;16424;50.956;5.320;2023-05-10T04:38:29;13.80;99.90
29453;DHT22;16424;50.956;5.320;2023-05-10T04:41:06;13.90;99.90
29453;DHT22;16424;50.956;5.320;2023-05-10T04:43:32;14.10;99.90
29453;DHT22;16424;50.956;5.320;2023-05-10T04:45:58;14.20;99.90
29453;DHT22;16424;50.956;5.320;2023-05-10T04:48:24;14.30;99.90
29453;DHT22;16424;50.956;5.320;2023-05-10T04:50:49;14.30;99.90
29453;DHT22;16424;50.956;5.320;2023-05-10T04:53:15;14.40;99.90
29453;DHT22;16424;50.956;5.320;2023-05-10T04:55:41;14.30;99.90
29453;DHT22;16424;50.956;5.320;2023-05-10T04:58:06;14.30;99.90
29453;DHT22;16424;50.956;5.320;2023-05-10T05:00:33;14.20;99.90
29453;DHT22;16424;50.956;5.320;2023-05-10T05:02:58;14.10;99.90
29453;DHT22;16424;50.956;5.320;2023-05-10T05:05:24;14.10;99.90
29453;DHT22;16424;50.956;5.320;2023-05-10T05:07:50;14.10;99.90
29453;DHT22;16424;50.956;5.320;2023-05-10T05:10:16;14.10;99.90
29453;DHT22;16424;50.956;5.320;2023-05-10T05:12:41;14.00;99.90
29453;DHT22;16424;50.956;5.320;2023-05-10T05:15:07;13.90;99.90
29453;DHT22;16424;50.956;5.320;2023-05-10T05:17:36;13.90;99.90
29453;DHT22;16424;50.956;5.320;2023-05-10T05:20:02;14.00;99.90
29453;DHT22;16424;50.956;5.320;2023-05-10T05:22:28;14.00;99.90
29453;DHT22;16424;50.956;5.320;2023-05-10T05:24:54;14.00;99.90
29453;DHT22;16424;50.956;5.320;2023-05-10T05:27:20;14.00;99.90
29453;DHT22;16424;50.956;5.320;2023-05-10T05:29:50;14.10;99.90
29453;DHT22;16424;50.956;5.320;2023-05-10T05:32:16;14.20;99.90
29453;DHT22;16424;50.956;5.320;2023-05-10T05:34:44;14.20;99.90
29453;DHT22;16424;50.956;5.320;2023-05-10T05:37:16;14.20;99.90
29453;DHT22;16424;50.956;5.320;2023-05-10T05:39:42;14.30;99.90
29453;DHT22;16424;50.956;5.320;2023-05-10T05:42:12;14.30;99.90
29453;DHT22;16424;50.956;5.320;2023-05-10T05:44:38;14.40;99.90
29453;DHT22;16424;50.956;5.320;2023-05-10T05:47:04;14.40;99.90
29453;DHT22;16424;50.956;5.320;2023-05-10T05:49:30;14.50;99.90
29453;DHT22;16424;50.956;5.320;2023-05-10T05:51:59;14.70;99.90
29453;DHT22;16424;50.956;5.320;2023-05-10T05:54:25;14.70;99.90
29453;DHT22;16424;50.956;5.320;2023-05-10T05:56:57;14.70;99.90
29453;DHT22;16424;50.956;5.320;2023-05-10T05:59:23;14.70;99.90
29453;DHT22;16424;50.956;5.320;2023-05-10T06:01:49;14.80;99.90
29453;DHT22;16424;50.956;5.320;2023-05-10T06:04:14;14.80;99.90
29453;DHT22;16424;50.956;5.320;2023-05-10T06:06:40;14.80;99.90
29453;DHT22;16424;50.956;5.320;2023-05-10T06:09:06;14.70;99.90
29453;DHT22;16424;50.956;5.320;2023-05-10T06:11:31;14.60;99.90
29453;DHT22;16424;50.956;5.320;2023-05-10T06:13:58;14.60;99.90
29453;DHT22;16424;50.956;5.320;2023-05-10T06:16:26;14.70;99.90
29453;DHT22;16424;50.956;5.320;2023-05-10T06:18:51;14.60;99.90
29453;DHT22;16424;50.956;5.320;2023-05-10T06:21:17;14.70;99.90
29453;DHT22;16424;50.956;5.320;2023-05-10T06:23:43;14.70;99.90
29453;DHT22;16424;50.956;5.320;2023-05-10T06:26:09;14.50;99.90
29453;DHT22;16424;50.956;5.320;2023-05-10T06:28:35;14.50;99.90
29453;DHT22;16424;50.956;5.320;2023-05-10T06:31:00;14.60;99.90
29453;DHT22;16424;50.956;5.320;2023-05-10T06:33:26;14.80;99.90
29453;DHT22;16424;50.956;5.320;2023-05-10T06:35:52;14.60;99.90
29453;DHT22;16424;50.956;5.320;2023-05-10T06:38:18;14.30;99.90
29453;DHT22;16424;50.956;5.320;2023-05-10T06:40:44;14.30;99.90
29453;DHT22;16424;50.956;5.320;2023-05-10T06:43:10;14.50;99.90
29453;DHT22;16424;50.956;5.320;2023-05-10T06:45:35;14.30;99.90
29453;DHT22;16424;50.956;5.320;2023-05-10T06:48:01;14.50;99.90
29453;DHT22;16424;50.956;5.320;2023-05-10T06:50:27;14.50;99.90
29453;DHT22;16424;50.956;5.320;2023-05-10T06:52:52;14.40;99.90
29453;DHT22;16424;50.956;5.320;2023-05-10T06:55:18;14.40;99.90
29453;DHT22;16424;50.956;5.320;2023-05-10T06:57:44;14.50;99.90
29453;DHT22;16424;50.956;5.320;2023-05-10T07:00:09;14.50;99.90
29453;DHT22;16424;50.956;5.320;2023-05-10T07:02:35;14.50;99.90
29453;DHT22;16424;50.956;5.320;2023-05-10T07:05:01;14.30;99.90
29453;DHT22;16424;50.956;5.320;2023-05-10T07:07:27;14.30;99.90
29453;DHT22;16424;50.956;5.320;2023-05-10T07:09:54;14.50;99.90
29453;DHT22;16424;50.956;5.320;2023-05-10T07:12:20;14.60;99.90
29453;DHT22;16424;50.956;5.320;2023-05-10T07:14:45;14.70;99.90
29453;DHT22;16424;50.956;5.320;2023-05-10T07:17:11;14.70;99.90
29453;DHT22;16424;50.956;5.320;2023-05-10T07:19:37;14.60;99.90
29453;DHT22;16424;50.956;5.320;2023-05-10T07:22:03;14.50;99.90
29453;DHT22;16424;50.956;5.320;2023-05-10T07:24:28;14.40;99.90
29453;DHT22;16424;50.956;5.320;2023-05-10T07:26:55;14.50;99.90
29453;DHT22;16424;50.956;5.320;2023-05-10T07:29:20;14.30;99.90
29453;DHT22;16424;50.956;5.320;2023-05-10T07:31:46;14.40;99.90
29453;DHT22;16424;50.956;5.320;2023-05-10T07:34:11;14.40;99.90
29453;DHT22;16424;50.956;5.320;2023-05-10T07:36:38;14.70;99.90
29453;DHT22;16424;50.956;5.320;2023-05-10T07:39:03;14.90;99.90
29453;DHT22;16424;50.956;5.320;2023-05-10T07:41:29;15.10;99.90
29453;DHT22;16424;50.956;5.320;2023-05-10T07:43:55;15.20;99.90
29453;DHT22;16424;50.956;5.320;2023-05-10T07:46:20;15.40;99.90
29453;DHT22;16424;50.956;5.320;2023-05-10T07:48:46;15.50;99.90
29453;DHT22;16424;50.956;5.320;2023-05-10T07:51:12;15.50;99.90
29453;DHT22;16424;50.956;5.320;2023-05-10T07:53:38;15.50;99.90
29453;DHT22;16424;50.956;5.320;2023-05-10T07:56:24;15.70;99.90
29453;DHT22;16424;50.956;5.320;2023-05-10T07:58:58;15.80;99.90
29453;DHT22;16424;50.956;5.320;2023-05-10T08:01:24;15.50;99.90
29453;DHT22;16424;50.956;5.320;2023-05-10T08:03:50;15.40;99.90
29453;DHT22;16424;50.956;5.320;2023-05-10T08:06:17;15.60;99.90
29453;DHT22;16424;50.956;5.320;2023-05-10T08:08:45;15.20;99.90
29453;DHT22;16424;50.956;5.320;2023-05-10T08:11:17;15.30;99.90
29453;DHT22;16424;50.956;5.320;2023-05-10T08:13:44;15.20;99.90
29453;DHT22;16424;50.956;5.320;2023-05-10T08:16:09;15.20;99.90
29453;DHT22;16424;50.956;5.320;2023-05-10T08:18:35;15.40;99.90
29453;DHT22;16424;50.956;5.320;2023-05-10T08:21:01;15.10;99.90
29453;DHT22;16424;50.956;5.320;2023-05-10T08:23:26;15.20;99.90
29453;DHT22;16424;50.956;5.320;2023-05-10T08:25:52;15.10;99.90
29453;DHT22;16424;50.956;5.320;2023-05-10T08:28:17;15.00;99.90
29453;DHT22;16424;50.956;5.320;2023-05-10T08:30:43;14.60;99.90
29453;DHT22;16424;50.956;5.320;2023-05-10T08:33:09;14.70;99.90
29453;DHT22;16424;50.956;5.320;2023-05-10T08:35:34;14.70;99.90
29453;DHT22;16424;50.956;5.320;2023-05-10T08:38:00;14.50;99.90
29453;DHT22;16424;50.956;5.320;2023-05-10T08:40:26;14.60;99.90
29453;DHT22;16424;50.956;5.320;2023-05-10T08:43:00;14.30;99.90
29453;DHT22;16424;50.956;5.320;2023-05-10T08:45:32;14.30;99.90
29453;DHT22;16424;50.956;5.320;2023-05-10T08:48:01;14.30;99.90
29453;DHT22;16424;50.956;5.320;2023-05-10T08:50:27;14.10;99.90
29453;DHT22;16424;50.956;5.320;2023-05-10T08:52:55;14.10;99.90
29453;DHT22;16424;50.956;5.320;2023-05-10T08:55:23;14.30;99.90
29453;DHT22;16424;50.956;5.320;2023-05-10T08:57:49;14.20;99.90
29453;DHT22;16424;50.956;5.320;2023-05-10T09:00:17;14.30;99.90
29453;DHT22;16424;50.956;5.320;2023-05-10T09:02:43;14.10;99.90
29453;DHT22;16424;50.956;5.320;2023-05-10T09:05:11;14.20;99.90
29453;DHT22;16424;50.956;5.320;2023-05-10T09:07:37;14.40;99.90
29453;DHT22;16424;50.956;5.320;2023-05-10T09:10:04;14.30;99.90
29453;DHT22;16424;50.956;5.320;2023-05-10T09:12:30;14.40;99.90
29453;DHT22;16424;50.956;5.320;2023-05-10T09:14:57;14.30;99.90
29453;DHT22;16424;50.956;5.320;2023-05-10T09:17:25;14.50;99.90
29453;DHT22;16424;50.956;5.320;2023-05-10T09:20:00;14.40;99.90
29453;DHT22;16424;50.956;5.320;2023-05-10T09:22:27;14.50;99.90
29453;DHT22;16424;50.956;5.320;2023-05-10T09:25:12;14.30;99.90
29453;DHT22;16424;50.956;5.320;2023-05-10T09:27:38;14.30;99.90
29453;DHT22;16424;50.956;5.320;2023-05-10T09:30:05;14.20;99.90
29453;DHT22;16424;50.956;5.320;2023-05-10T09:32:41;14.30;99.90
29453;DHT22;16424;50.956;5.320;2023-05-10T09:35:12;14.60;99.90
29453;DHT22;16424;50.956;5.320;2023-05-10T09:37:46;14.90;99.90
29453;DHT22;16424;50.956;5.320;2023-05-10T09:40:23;14.80;99.90
29453;DHT22;16424;50.956;5.320;2023-05-10T09:43:03;14.70;99.90
29453;DHT22;16424;50.956;5.320;2023-05-10T09:45:33;14.90;99.90
29453;DHT22;16424;50.956;5.320;2023-05-10T09:48:01;15.00;99.90
29453;DHT22;16424;50.956;5.320;2023-05-10T09:50:27;15.00;99.90
29453;DHT22;16424;50.956;5.320;2023-05-10T09:52:58;15.20;99.90
29453;DHT22;16424;50.956;5.320;2023-05-10T09:55:45;15.50;99.90
29453;DHT22;16424;50.956;5.320;2023-05-10T09:58:12;15.70;99.90
29453;DHT22;16424;50.956;5.320;2023-05-10T10:00:45;15.90;99.90
29453;DHT22;16424;50.956;5.320;2023-05-10T10:03:18;15.70;99.90
29453;DHT22;16424;50.956;5.320;2023-05-10T10:05:45;15.70;99.90
29453;DHT22;16424;50.956;5.320;2023-05-10T10:08:11;15.60;99.90
29453;DHT22;16424;50.956;5.320;2023-05-10T10:10:37;15.70;99.90
29453;DHT22;16424;50.956;5.320;2023-05-10T10:13:06;16.10;99.90
29453;DHT22;16424;50.956;5.320;2023-05-10T10:15:33;16.00;99.90
29453;DHT22;16424;50.956;5.320;2023-05-10T10:17:59;16.20;99.90
29453;DHT22;16424;50.956;5.320;2023-05-10T10:20:26;16.10;99.90
29453;DHT22;16424;50.956;5.320;2023-05-10T10:22:52;16.00;99.90
29453;DHT22;16424;50.956;5.320;2023-05-10T10:25:19;16.00;99.90
29453;DHT22;16424;50.956;5.320;2023-05-10T10:35:53;15.70;99.90
29453;DHT22;16424;50.956;5.320;2023-05-10T10:38:19;16.00;99.90
29453;DHT22;16424;50.956;5.320;2023-05-10T10:40:44;16.10;99.90
29453;DHT22;16424;50.956;5.320;2023-05-10T10:43:24;16.20;99.90
29453;DHT22;16424;50.956;5.320;2023-05-10T10:46:17;16.50;99.90
29453;DHT22;16424;50.956;5.320;2023-05-10T10:48:50;16.70;99.90
29453;DHT22;16424;50.956;5.320;2023-05-10T10:51:39;15.80;99.90
29453;DHT22;16424;50.956;5.320;2023-05-10T10:54:11;15.80;99.90
29453;DHT22;16424;50.956;5.320;2023-05-10T10:56:37;16.10;99.90
29453;DHT22;16424;50.956;5.320;2023-05-10T10:59:02;16.10;99.90
29453;DHT22;16424;50.956;5.320;2023-05-10T11:01:33;16.40;99.90
29453;DHT22;16424;50.956;5.320;2023-05-10T11:06:32;16.60;99.90
29453;DHT22;16424;50.956;5.320;2023-05-10T11:09:04;16.70;99.90
29453;DHT22;16424;50.956;5.320;2023-05-10T11:11:31;16.80;99.90
29453;DHT22;16424;50.956;5.320;2023-05-10T11:14:03;16.80;99.90
29453;DHT22;16424;50.956;5.320;2023-05-10T11:16:43;16.70;99.90
29453;DHT22;16424;50.956;5.320;2023-05-10T11:19:11;16.50;99.90
29453;DHT22;16424;50.956;5.320;2023-05-10T11:22:11;16.60;99.90
29453;DHT22;16424;50.956;5.320;2023-05-10T11:24:38;16.60;99.90
29453;DHT22;16424;50.956;5.320;2023-05-10T11:27:04;16.60;99.90
29453;DHT22;16424;50.956;5.320;2023-05-10T11:29:29;16.70;99.90
29453;DHT22;16424;50.956;5.320;2023-05-10T11:31:57;16.90;99.90
29453;DHT22;16424;50.956;5.320;2023-05-10T11:34:28;16.70;99.90
29453;DHT22;16424;50.956;5.320;2023-05-10T11:36:56;16.50;99.90
29453;DHT22;16424;50.956;5.320;2023-05-10T11:39:29;15.90;99.90
29453;DHT22;16424;50.956;5.320;2023-05-10T11:41:56;15.90;99.90
29453;DHT22;16424;50.956;5.320;2023-05-10T11:44:21;15.90;99.90
29453;DHT22;16424;50.956;5.320;2023-05-10T11:46:48;16.10;99.90
29453;DHT22;16424;50.956;5.320;2023-05-10T11:49:14;16.30;99.90
29453;DHT22;16424;50.956;5.320;2023-05-10T11:51:40;16.40;99.90
29453;DHT22;16424;50.956;5.320;2023-05-10T11:54:09;16.30;99.90
29453;DHT22;16424;50.956;5.320;2023-05-10T11:56:36;16.40;99.90
29453;DHT22;16424;50.956;5.320;2023-05-10T11:59:03;16.70;99.90
29453;DHT22;16424;50.956;5.320;2023-05-10T12:01:30;16.60;99.90
29453;DHT22;16424;50.956;5.320;2023-05-10T12:03:57;16.90;99.90
29453;DHT22;16424;50.956;5.320;2023-05-10T12:06:27;17.00;99.90
29453;DHT22;16424;50.956;5.320;2023-05-10T12:08:53;17.20;99.90
29453;DHT22;16424;50.956;5.320;2023-05-10T12:11:20;17.00;99.90
29453;DHT22;16424;50.956;5.320;2023-05-10T12:13:47;16.70;99.90
29453;DHT22;16424;50.956;5.320;2023-05-10T12:18:43;16.70;99.90
29453;DHT22;16424;50.956;5.320;2023-05-10T12:21:12;16.70;99.90
29453;DHT22;16424;50.956;5.320;2023-05-10T12:23:41;16.10;99.90
29453;DHT22;16424;50.956;5.320;2023-05-10T12:26:10;16.40;99.90
29453;DHT22;16424;50.956;5.320;2023-05-10T12:28:36;16.70;99.90
29453;DHT22;16424;50.956;5.320;2023-05-10T12:31:02;17.00;99.90
29453;DHT22;16424;50.956;5.320;2023-05-10T12:33:36;17.20;99.90
29453;DHT22;16424;50.956;5.320;2023-05-10T12:36:04;17.30;99.90
29453;DHT22;16424;50.956;5.320;2023-05-10T12:38:35;17.20;99.90
29453;DHT22;16424;50.956;5.320;2023-05-10T12:41:07;17.40;99.90
29453;DHT22;16424;50.956;5.320;2023-05-10T12:43:34;16.90;99.90
29453;DHT22;16424;50.956;5.320;2023-05-10T12:46:10;16.80;99.90
29453;DHT22;16424;50.956;5.320;2023-05-10T12:48:40;17.10;99.90
29453;DHT22;16424;50.956;5.320;2023-05-10T12:51:07;16.80;99.90
29453;DHT22;16424;50.956;5.320;2023-05-10T12:53:38;16.90;99.90
29453;DHT22;16424;50.956;5.320;2023-05-10T12:56:04;16.90;99.90
29453;DHT22;16424;50.956;5.320;2023-05-10T12:58:30;16.60;99.90
29453;DHT22;16424;50.956;5.320;2023-05-10T13:00:55;16.40;99.90
29453;DHT22;16424;50.956;5.320;2023-05-10T13:03:22;16.40;99.90
29453;DHT22;16424;50.956;5.320;2023-05-10T13:05:48;16.90;99.90
29453;DHT22;16424;50.956;5.320;2023-05-10T13:08:13;16.60;99.90
29453;DHT22;16424;50.956;5.320;2023-05-10T13:10:39;16.80;99.90
29453;DHT22;16424;50.956;5.320;2023-05-10T13:13:05;17.00;99.90
29453;DHT22;16424;50.956;5.320;2023-05-10T13:15:32;16.70;99.90
29453;DHT22;16424;50.956;5.320;2023-05-10T13:17:58;16.70;99.90
29453;DHT22;16424;50.956;5.320;2023-05-10T13:20:25;16.70;99.90
29453;DHT22;16424;50.956;5.320;2023-05-10T13:22:51;17.00;99.90
29453;DHT22;16424;50.956;5.320;2023-05-10T13:25:16;17.30;99.90
29453;DHT22;16424;50.956;5.320;2023-05-10T13:27:42;17.50;99.90
29453;DHT22;16424;50.956;5.320;2023-05-10T13:30:08;17.70;99.90
29453;DHT22;16424;50.956;5.320;2023-05-10T13:32:35;16.90;99.90
29453;DHT22;16424;50.956;5.320;2023-05-10T13:35:01;17.30;99.90
29453;DHT22;16424;50.956;5.320;2023-05-10T13:37:29;17.80;99.90
29453;DHT22;16424;50.956;5.320;2023-05-10T13:39:55;17.70;99.90
29453;DHT22;16424;50.956;5.320;2023-05-10T13:42:22;17.50;99.90
29453;DHT22;16424;50.956;5.320;2023-05-10T13:44:48;17.30;99.90
29453;DHT22;16424;50.956;5.320;2023-05-10T13:47:14;17.70;99.90
29453;DHT22;16424;50.956;5.320;2023-05-10T13:49:40;17.70;99.90
29453;DHT22;16424;50.956;5.320;2023-05-10T13:52:05;17.50;99.90
29453;DHT22;16424;50.956;5.320;2023-05-10T13:54:35;17.90;99.90
29453;DHT22;16424;50.956;5.320;2023-05-10T13:57:02;17.40;99.90
29453;DHT22;16424;50.956;5.320;2023-05-10T13:59:28;16.90;99.90
29453;DHT22;16424;50.956;5.320;2023-05-10T14:01:54;17.40;99.90
29453;DHT22;16424;50.956;5.320;2023-05-10T14:04:20;17.80;99.90
29453;DHT22;16424;50.956;5.320;2023-05-10T14:06:45;17.90;99.90
29453;DHT22;16424;50.956;5.320;2023-05-10T14:09:11;17.90;99.90
29453;DHT22;16424;50.956;5.320;2023-05-10T14:11:37;18.00;99.90
29453;DHT22;16424;50.956;5.320;2023-05-10T14:14:07;18.20;99.90
29453;DHT22;16424;50.956;5.320;2023-05-10T14:16:33;18.40;99.90
29453;DHT22;16424;50.956;5.320;2023-05-10T14:18:59;18.30;99.90
29453;DHT22;16424;50.956;5.320;2023-05-10T14:21:25;18.70;99.90
29453;DHT22;16424;50.956;5.320;2023-05-10T14:23:50;18.90;99.90
29453;DHT22;16424;50.956;5.320;2023-05-10T14:26:16;18.90;99.90
29453;DHT22;16424;50.956;5.320;2023-05-10T14:28:42;18.70;99.90
29453;DHT22;16424;50.956;5.320;2023-05-10T14:31:07;18.70;99.90
29453;DHT22;16424;50.956;5.320;2023-05-10T14:33:33;18.60;99.90
29453;DHT22;16424;50.956;5.320;2023-05-10T14:35:58;18.60;99.90
29453;DHT22;16424;50.956;5.320;2023-05-10T14:38:25;18.20;99.90
29453;DHT22;16424;50.956;5.320;2023-05-10T14:40:51;18.00;99.90
29453;DHT22;16424;50.956;5.320;2023-05-10T14:43:17;17.90;99.90
29453;DHT22;16424;50.956;5.320;2023-05-10T14:45:43;18.00;99.90
29453;DHT22;16424;50.956;5.320;2023-05-10T14:48:09;18.10;99.90
29453;DHT22;16424;50.956;5.320;2023-05-10T14:50:37;18.00;99.90
29453;DHT22;16424;50.956;5.320;2023-05-10T14:53:04;17.80;99.90
29453;DHT22;16424;50.956;5.320;2023-05-10T14:55:29;18.10;99.90
29453;DHT22;16424;50.956;5.320;2023-05-10T14:57:55;18.20;99.90
29453;DHT22;16424;50.956;5.320;2023-05-10T15:00:21;18.20;99.90
29453;DHT22;16424;50.956;5.320;2023-05-10T15:02:47;18.20;99.90
29453;DHT22;16424;50.956;5.320;2023-05-10T15:05:14;18.10;99.90
29453;DHT22;16424;50.956;5.320;2023-05-10T15:07:39;18.00;99.90
29453;DHT22;16424;50.956;5.320;2023-05-10T15:10:05;18.20;99.90
29453;DHT22;16424;50.956;5.320;2023-05-10T15:12:31;18.70;99.90
29453;DHT22;16424;50.956;5.320;2023-05-10T15:14:57;18.50;99.90
29453;DHT22;16424;50.956;5.320;2023-05-10T15:17:22;18.50;99.90
29453;DHT22;16424;50.956;5.320;2023-05-10T15:19:48;18.30;99.90
29453;DHT22;16424;50.956;5.320;2023-05-10T15:22:14;18.30;99.90
29453;DHT22;16424;50.956;5.320;2023-05-10T15:24:40;18.50;99.90
29453;DHT22;16424;50.956;5.320;2023-05-10T15:27:06;18.40;99.90
29453;DHT22;16424;50.956;5.320;2023-05-10T15:29:31;18.10;99.90
29453;DHT22;16424;50.956;5.320;2023-05-10T15:31:57;18.20;99.90
29453;DHT22;16424;50.956;5.320;2023-05-10T15:34:23;18.50;99.90
29453;DHT22;16424;50.956;5.320;2023-05-10T15:36:49;18.50;99.90
29453;DHT22;16424;50.956;5.320;2023-05-10T15:39:14;18.20;99.90
29453;DHT22;16424;50.956;5.320;2023-05-10T15:41:40;18.10;99.90
29453;DHT22;16424;50.956;5.320;2023-05-10T15:44:06;18.40;99.90
29453;DHT22;16424;50.956;5.320;2023-05-10T15:46:32;18.50;99.90
29453;DHT22;16424;50.956;5.320;2023-05-10T15:48:57;18.50;99.90
29453;DHT22;16424;50.956;5.320;2023-05-10T15:51:24;18.70;99.90
29453;DHT22;16424;50.956;5.320;2023-05-10T15:53:50;19.00;99.90